createdAt,value
2017-10-19T00:00:03.890Z,72.00
2017-10-19T00:02:31.053Z,71.99
2017-10-19T00:04:58.697Z,72.00
2017-10-19T00:07:25.990Z,72.00
2017-10-19T00:09:53.170Z,72.00
2017-10-19T00:12:21.551Z,72.00
2017-10-19T00:14:48.723Z,72.02
2017-10-19T00:17:15.884Z,72.00
2017-10-19T00:19:43.216Z,72.00
2017-10-19T00:22:10.742Z,72.00
2017-10-19T00:24:37.905Z,72.00
2017-10-19T00:27:07.522Z,71.99
2017-10-19T00:29:34.883Z,71.99
2017-10-19T00:32:02.081Z,71.99
2017-10-19T00:34:30.484Z,71.99
2017-10-19T00:36:57.689Z,72.00
2017-10-19T00:39:24.853Z,71.99
2017-10-19T00:41:52.008Z,71.99
2017-10-19T00:44:19.168Z,71.99
2017-10-19T00:46:46.457Z,72.00
2017-10-19T00:49:13.618Z,71.99
2017-10-19T00:51:40.762Z,71.98
2017-10-19T00:54:07.909Z,71.99
2017-10-19T00:56:35.060Z,71.98
2017-10-19T00:59:02.202Z,71.98
2017-10-19T01:01:30.114Z,71.98
2017-10-19T01:03:57.272Z,71.97
2017-10-19T01:06:24.419Z,71.98
2017-10-19T01:08:51.565Z,71.98
2017-10-19T01:11:18.729Z,71.98
2017-10-19T01:13:45.870Z,71.98
2017-10-19T01:16:13.016Z,71.98
2017-10-19T01:18:40.162Z,71.98
2017-10-19T01:21:07.306Z,71.97
2017-10-19T01:23:34.629Z,71.97
2017-10-19T01:26:01.774Z,71.97
2017-10-19T01:28:29.685Z,71.97
2017-10-19T01:30:56.844Z,71.97
2017-10-19T01:33:24.006Z,71.97
2017-10-19T01:35:51.176Z,71.97
2017-10-19T01:38:18.340Z,71.96
2017-10-19T01:40:45.505Z,71.97
2017-10-19T01:43:12.667Z,71.96
2017-10-19T01:45:39.814Z,71.97
2017-10-19T01:48:06.980Z,71.97
2017-10-19T01:50:34.120Z,71.96
2017-10-19T01:53:01.274Z,71.96
2017-10-19T01:55:28.430Z,71.96
2017-10-19T01:57:55.582Z,71.94
2017-10-19T02:00:22.795Z,71.96
2017-10-19T02:02:50.726Z,71.95
2017-10-19T02:05:17.882Z,71.96
2017-10-19T02:07:45.044Z,71.95
2017-10-19T02:10:12.190Z,71.96
2017-10-19T02:12:39.352Z,71.96
2017-10-19T02:15:06.497Z,71.96
2017-10-19T02:17:33.656Z,71.95
2017-10-19T02:20:00.798Z,71.95
2017-10-19T02:22:28.091Z,71.94
2017-10-19T02:24:55.242Z,71.94
2017-10-19T02:27:22.388Z,71.94
2017-10-19T02:29:49.538Z,71.94
2017-10-19T02:32:16.696Z,71.94
2017-10-19T02:34:43.848Z,71.94
2017-10-19T02:37:11.001Z,71.95
2017-10-19T02:39:38.151Z,71.95
2017-10-19T02:42:05.308Z,71.95
2017-10-19T02:44:32.451Z,71.95
2017-10-19T02:46:59.615Z,71.94
2017-10-19T02:49:26.758Z,71.94
2017-10-19T02:51:53.917Z,71.94
2017-10-19T02:54:21.058Z,71.93
2017-10-19T02:56:48.198Z,71.94
2017-10-19T02:59:15.347Z,71.93
2017-10-19T03:01:42.488Z,71.94
2017-10-19T03:04:09.642Z,71.94
2017-10-19T03:06:36.788Z,71.94
2017-10-19T03:09:03.980Z,71.95
2017-10-19T03:11:31.123Z,71.93
2017-10-19T03:13:58.284Z,71.95
2017-10-19T03:16:26.207Z,71.95
2017-10-19T03:18:53.346Z,71.94
2017-10-19T03:23:47.285Z,71.93
2017-10-19T03:26:14.427Z,71.92
2017-10-19T03:28:41.571Z,71.92
2017-10-19T03:31:08.735Z,71.90
2017-10-19T03:33:35.897Z,71.89
2017-10-19T03:36:03.052Z,71.88
2017-10-19T03:38:30.228Z,71.87
2017-10-19T03:40:57.375Z,71.85
2017-10-19T03:43:24.537Z,71.82
2017-10-19T03:45:51.702Z,71.79
2017-10-19T03:48:18.861Z,71.75
2017-10-19T03:50:46.002Z,71.71
2017-10-19T03:53:13.156Z,71.69
2017-10-19T03:55:40.302Z,71.64
2017-10-19T03:58:07.459Z,71.62
2017-10-19T04:00:34.620Z,71.58
2017-10-19T04:03:01.760Z,71.55
2017-10-19T04:05:28.900Z,71.52
2017-10-19T04:07:56.061Z,71.50
2017-10-19T04:10:23.209Z,71.48
2017-10-19T04:12:50.369Z,71.46
2017-10-19T04:15:17.536Z,71.45
2017-10-19T04:17:44.704Z,71.43
2017-10-19T04:20:11.853Z,71.42
2017-10-19T04:22:38.994Z,71.39
2017-10-19T04:25:06.130Z,71.40
2017-10-19T04:27:33.357Z,71.39
2017-10-19T04:30:00.503Z,71.39
2017-10-19T04:32:27.666Z,71.40
2017-10-19T04:34:54.805Z,71.40
2017-10-19T04:37:21.946Z,71.41
2017-10-19T04:39:49.387Z,71.43
2017-10-19T04:42:17.786Z,71.45
2017-10-19T04:44:44.948Z,71.46
2017-10-19T04:47:12.110Z,71.49
2017-10-19T04:49:39.285Z,71.51
2017-10-19T04:52:06.435Z,71.53
2017-10-19T04:54:33.592Z,71.54
2017-10-19T04:57:00.734Z,71.56
2017-10-19T04:59:27.901Z,71.58
2017-10-19T05:01:55.056Z,71.60
2017-10-19T05:04:22.236Z,71.61
2017-10-19T05:06:49.392Z,71.64
2017-10-19T05:09:16.535Z,71.65
2017-10-19T05:11:43.695Z,71.65
2017-10-19T05:14:10.865Z,71.67
2017-10-19T05:16:38.021Z,71.68
2017-10-19T05:19:05.166Z,71.69
2017-10-19T05:21:32.311Z,71.70
2017-10-19T05:23:59.469Z,71.70
2017-10-19T05:26:26.785Z,71.70
2017-10-19T05:28:53.927Z,71.70
2017-10-19T05:31:21.829Z,71.70
2017-10-19T05:33:49.319Z,71.69
2017-10-19T05:36:16.504Z,71.68
2017-10-19T05:38:43.642Z,71.69
2017-10-19T05:41:10.796Z,71.68
2017-10-19T05:43:37.971Z,71.66
2017-10-19T05:46:05.133Z,71.66
2017-10-19T05:48:32.291Z,71.65
2017-10-19T05:50:59.435Z,71.63
2017-10-19T05:53:26.575Z,71.62
2017-10-19T05:55:53.737Z,71.62
2017-10-19T05:58:20.892Z,71.62
2017-10-19T06:00:48.034Z,71.62
2017-10-19T06:03:15.191Z,71.62
2017-10-19T06:05:42.326Z,71.61
2017-10-19T06:08:09.489Z,71.62
2017-10-19T06:10:36.632Z,71.61
2017-10-19T06:13:03.792Z,71.61
2017-10-19T06:15:30.956Z,71.61
2017-10-19T06:17:58.129Z,71.61
2017-10-19T06:20:25.265Z,71.61
2017-10-19T06:22:52.427Z,71.61
2017-10-19T06:25:19.580Z,71.61
2017-10-19T06:27:46.732Z,71.61
2017-10-19T06:30:13.870Z,71.62
2017-10-19T06:32:41.032Z,71.62
2017-10-19T06:35:08.175Z,71.63
2017-10-19T06:37:35.308Z,71.70
2017-10-19T06:40:02.473Z,71.61
2017-10-19T06:42:29.618Z,71.61
2017-10-19T06:44:56.779Z,71.62
2017-10-19T06:47:23.933Z,71.63
2017-10-19T06:49:51.074Z,71.64
2017-10-19T06:52:18.232Z,71.67
2017-10-19T06:54:45.370Z,71.68
2017-10-19T06:57:12.510Z,71.70
2017-10-19T06:59:39.667Z,71.70
2017-10-19T07:02:06.830Z,71.72
2017-10-19T07:04:33.988Z,71.73
2017-10-19T07:07:01.165Z,71.74
2017-10-19T07:09:28.320Z,71.75
2017-10-19T07:11:55.481Z,71.76
2017-10-19T07:14:22.626Z,71.76
2017-10-19T07:16:49.782Z,71.77
2017-10-19T07:19:16.927Z,71.77
2017-10-19T07:21:44.093Z,71.77
2017-10-19T07:24:11.249Z,71.76
2017-10-19T07:26:38.408Z,71.75
2017-10-19T07:29:05.581Z,71.74
2017-10-19T07:31:32.736Z,71.72
2017-10-19T07:33:59.892Z,71.70
2017-10-19T07:36:27.048Z,71.68
2017-10-19T07:38:54.212Z,71.66
2017-10-19T07:41:21.373Z,71.62
2017-10-19T07:43:48.549Z,71.60
2017-10-19T07:46:15.711Z,71.58
2017-10-19T07:48:42.873Z,71.56
2017-10-19T07:51:10.027Z,71.55
2017-10-19T07:53:37.170Z,71.54
2017-10-19T07:56:04.318Z,71.53
2017-10-19T07:58:31.480Z,71.53
2017-10-19T08:00:58.617Z,71.53
2017-10-19T08:03:25.772Z,71.53
2017-10-19T08:05:52.919Z,71.54
2017-10-19T08:08:20.078Z,71.55
2017-10-19T08:10:47.223Z,71.56
2017-10-19T08:13:14.451Z,71.57
2017-10-19T08:15:41.604Z,71.59
2017-10-19T08:18:08.745Z,71.60
2017-10-19T08:20:35.909Z,71.62
2017-10-19T08:23:03.045Z,71.65
2017-10-19T08:25:30.200Z,71.66
2017-10-19T08:27:57.356Z,71.67
2017-10-19T08:30:24.511Z,71.69
2017-10-19T08:32:51.671Z,71.69
2017-10-19T08:35:18.840Z,71.69
2017-10-19T08:37:45.982Z,71.69
2017-10-19T08:40:13.145Z,71.69
2017-10-19T08:42:40.304Z,71.69
2017-10-19T08:45:08.395Z,71.69
2017-10-19T08:47:35.590Z,71.68
2017-10-19T08:50:02.735Z,71.68
2017-10-19T08:52:29.882Z,71.68
2017-10-19T08:54:57.069Z,71.67
2017-10-19T08:57:24.206Z,71.66
2017-10-19T08:59:51.530Z,71.66
2017-10-19T09:02:18.689Z,71.66
2017-10-19T09:04:45.835Z,71.65
2017-10-19T09:07:12.974Z,71.65
2017-10-19T09:09:40.129Z,71.65
2017-10-19T09:12:07.284Z,71.65
2017-10-19T09:14:34.427Z,71.65
2017-10-19T09:17:01.568Z,71.64
2017-10-19T09:19:28.733Z,71.65
2017-10-19T09:21:55.876Z,71.64
2017-10-19T09:24:23.029Z,71.64
2017-10-19T09:26:50.271Z,71.65
2017-10-19T09:29:17.429Z,71.65
2017-10-19T09:31:44.567Z,71.65
2017-10-19T09:34:12.002Z,71.66
2017-10-19T09:36:39.930Z,71.66
2017-10-19T09:39:07.094Z,71.65
2017-10-19T09:41:34.246Z,71.66
2017-10-19T09:44:01.410Z,71.67
2017-10-19T09:46:28.554Z,71.67
2017-10-19T09:48:55.702Z,71.67
2017-10-19T09:51:22.859Z,71.68
2017-10-19T09:53:50.024Z,71.68
2017-10-19T09:56:17.185Z,71.69
2017-10-19T09:58:44.349Z,71.69
2017-10-19T10:01:11.541Z,71.69
2017-10-19T10:03:38.747Z,71.71
2017-10-19T10:06:05.909Z,71.70
2017-10-19T10:08:33.067Z,71.70
2017-10-19T10:11:00.211Z,71.72
2017-10-19T10:13:27.354Z,71.71
2017-10-19T10:15:54.503Z,71.73
2017-10-19T10:18:21.647Z,71.73
2017-10-19T10:20:48.798Z,71.73
2017-10-19T10:23:15.957Z,71.73
2017-10-19T10:25:43.111Z,71.73
2017-10-19T10:28:10.264Z,71.73
2017-10-19T10:30:37.708Z,71.73
2017-10-19T10:33:04.855Z,71.74
2017-10-19T10:35:32.045Z,71.74
2017-10-19T10:37:59.216Z,71.74
2017-10-19T10:40:26.377Z,71.75
2017-10-19T10:42:53.528Z,71.76
2017-10-19T10:45:20.672Z,71.77
2017-10-19T10:47:47.831Z,71.78
2017-10-19T10:50:14.970Z,71.79
2017-10-19T10:52:42.124Z,71.80
2017-10-19T10:55:09.265Z,71.81
2017-10-19T10:57:36.425Z,71.82
2017-10-19T11:00:03.605Z,71.83
2017-10-19T11:02:30.777Z,71.84
2017-10-19T11:04:57.918Z,71.85
2017-10-19T11:07:25.071Z,71.85
2017-10-19T11:09:52.248Z,71.89
2017-10-19T11:12:19.423Z,71.91
2017-10-19T11:14:46.578Z,71.88
2017-10-19T11:17:13.744Z,71.88
2017-10-19T11:19:40.897Z,71.89
2017-10-19T11:22:08.043Z,71.90
2017-10-19T11:24:35.202Z,71.90
2017-10-19T11:27:02.341Z,71.91
2017-10-19T11:29:29.600Z,71.92
2017-10-19T11:34:23.531Z,71.96
2017-10-19T11:36:50.698Z,71.91
2017-10-19T11:39:17.883Z,71.89
2017-10-19T11:41:45.804Z,71.85
2017-10-19T11:44:12.957Z,71.83
2017-10-19T11:46:40.110Z,71.81
2017-10-19T11:49:07.431Z,71.79
2017-10-19T11:51:34.579Z,71.78
2017-10-19T11:54:01.727Z,71.76
2017-10-19T11:56:28.888Z,71.75
2017-10-19T11:58:56.051Z,71.74
2017-10-19T12:01:23.193Z,71.74
2017-10-19T12:03:50.349Z,71.74
2017-10-19T12:06:17.789Z,71.74
2017-10-19T12:08:44.969Z,71.75
2017-10-19T12:11:12.110Z,71.76
2017-10-19T12:13:39.269Z,71.77
2017-10-19T12:16:06.815Z,71.78
2017-10-19T12:18:33.961Z,71.79
2017-10-19T12:21:01.130Z,71.80
2017-10-19T12:23:28.293Z,71.80
2017-10-19T12:25:55.602Z,71.82
2017-10-19T12:28:22.758Z,71.82
2017-10-19T12:30:49.929Z,71.83
2017-10-19T12:33:17.259Z,71.83
2017-10-19T12:35:44.431Z,71.83
2017-10-19T12:38:11.582Z,71.84
2017-10-19T12:40:38.745Z,71.84
2017-10-19T12:43:05.906Z,71.85
2017-10-19T12:45:33.069Z,71.86
2017-10-19T12:48:00.214Z,71.88
2017-10-19T12:50:27.411Z,71.88
2017-10-19T12:52:54.912Z,71.89
2017-10-19T12:55:22.076Z,71.89
2017-10-19T12:57:49.223Z,71.89
2017-10-19T13:00:16.408Z,71.89
2017-10-19T13:02:43.573Z,71.89
2017-10-19T13:05:11.161Z,71.87
2017-10-19T13:07:38.311Z,71.87
2017-10-19T13:10:06.146Z,71.86
2017-10-19T13:12:33.311Z,71.85
2017-10-19T13:15:00.930Z,71.84
2017-10-19T13:17:28.078Z,71.84
2017-10-19T13:19:55.222Z,71.84
2017-10-19T13:22:22.377Z,71.84
2017-10-19T13:24:50.175Z,71.84
2017-10-19T13:27:17.367Z,71.84
2017-10-19T13:29:44.901Z,71.85
2017-10-19T13:32:13.088Z,71.86
2017-10-19T13:34:40.239Z,71.86
2017-10-19T13:37:07.459Z,71.87
2017-10-19T13:39:34.711Z,71.87
2017-10-19T13:42:01.922Z,71.89
2017-10-19T13:44:29.071Z,71.90
2017-10-19T13:46:56.453Z,71.91
2017-10-19T13:49:24.202Z,71.90
2017-10-19T13:51:52.610Z,71.90
2017-10-19T13:54:20.118Z,71.91
2017-10-19T13:56:47.270Z,71.91
2017-10-19T13:59:14.411Z,71.92
2017-10-19T14:01:41.582Z,71.92
2017-10-19T14:04:08.727Z,71.92
2017-10-19T14:06:35.871Z,71.93
2017-10-19T14:11:29.810Z,71.94
2017-10-19T14:13:56.972Z,71.94
2017-10-19T14:16:24.135Z,71.95
2017-10-19T14:18:51.285Z,71.94
2017-10-19T14:21:18.722Z,71.95
2017-10-19T14:23:46.180Z,71.95
2017-10-19T14:26:13.882Z,71.95
2017-10-19T14:28:41.502Z,71.95
2017-10-19T14:31:08.683Z,71.96
2017-10-19T14:33:35.846Z,71.96
2017-10-19T14:36:03.002Z,71.97
2017-10-19T14:38:30.204Z,71.97
2017-10-19T14:40:57.359Z,71.98
2017-10-19T14:43:24.528Z,72.05
2017-10-19T14:45:51.675Z,72.06
2017-10-19T14:48:18.894Z,72.08
2017-10-19T14:50:46.054Z,72.08
2017-10-19T14:53:13.213Z,72.07
2017-10-19T14:55:40.372Z,72.08
2017-10-19T14:58:07.528Z,72.07
2017-10-19T15:00:35.639Z,72.09
2017-10-19T15:03:04.107Z,72.08
2017-10-19T15:05:31.307Z,72.10
2017-10-19T15:07:58.450Z,72.05
2017-10-19T15:10:26.569Z,72.03
2017-10-19T15:12:55.203Z,72.00
2017-10-19T15:15:22.386Z,71.95
2017-10-19T15:17:49.553Z,71.95
2017-10-19T15:20:16.716Z,71.91
2017-10-19T15:22:43.854Z,71.92
2017-10-19T15:25:10.989Z,71.96
2017-10-19T15:27:38.166Z,71.99
2017-10-19T15:30:05.321Z,72.03
2017-10-19T15:32:32.488Z,72.07
2017-10-19T15:35:00.402Z,72.06
2017-10-19T15:37:27.546Z,72.06
2017-10-19T15:39:54.708Z,72.06
2017-10-19T15:42:21.868Z,72.07
2017-10-19T15:44:49.396Z,72.10
2017-10-19T15:47:16.589Z,72.07
2017-10-19T15:49:43.732Z,72.07
2017-10-19T15:52:10.892Z,72.07
2017-10-19T15:54:38.035Z,72.07
2017-10-19T15:57:05.192Z,72.09
2017-10-19T15:59:32.352Z,72.07
2017-10-19T16:01:59.521Z,72.07
2017-10-19T16:04:27.449Z,72.07
2017-10-19T16:06:54.844Z,72.07
2017-10-19T16:09:22.005Z,72.07
2017-10-19T16:11:56.958Z,72.07
2017-10-19T16:14:24.122Z,72.07
2017-10-19T16:16:51.266Z,72.07
2017-10-19T16:19:18.422Z,72.08
2017-10-19T16:21:45.589Z,72.08
2017-10-19T16:24:12.749Z,72.09
2017-10-19T16:26:39.903Z,72.08
2017-10-19T16:29:07.064Z,72.08
2017-10-19T16:31:34.207Z,72.09
2017-10-19T16:34:01.519Z,72.10
2017-10-19T16:36:28.684Z,72.10
2017-10-19T16:38:56.900Z,72.10
2017-10-19T16:41:24.088Z,72.10
2017-10-19T16:43:51.236Z,72.10
2017-10-19T16:46:18.386Z,72.11
2017-10-19T16:48:45.556Z,72.10
2017-10-19T16:51:12.908Z,72.11
2017-10-19T16:53:40.077Z,72.11
2017-10-19T16:56:07.230Z,72.11
2017-10-19T16:58:34.389Z,72.09
2017-10-19T17:01:01.553Z,72.07
2017-10-19T17:03:28.723Z,72.02
2017-10-19T17:05:56.639Z,71.97
2017-10-19T17:08:24.519Z,71.93
2017-10-19T17:10:51.991Z,71.89
2017-10-19T17:13:19.147Z,71.89
2017-10-19T17:15:46.648Z,71.87
2017-10-19T17:18:13.826Z,71.86
2017-10-19T17:20:40.970Z,71.86
2017-10-19T17:23:08.133Z,71.86
2017-10-19T17:25:35.274Z,71.86
2017-10-19T17:28:02.438Z,71.85
2017-10-19T17:30:29.626Z,71.86
2017-10-19T17:32:56.780Z,71.87
2017-10-19T17:35:23.934Z,71.87
2017-10-19T17:37:51.325Z,71.89
2017-10-19T17:40:18.748Z,71.89
2017-10-19T17:42:46.837Z,71.89
2017-10-19T17:45:14.281Z,71.89
2017-10-19T17:47:41.457Z,71.89
2017-10-19T17:50:08.612Z,71.90
2017-10-19T17:52:35.786Z,71.90
2017-10-19T17:55:03.728Z,71.91
2017-10-19T17:57:30.920Z,71.91
2017-10-19T17:59:58.090Z,71.92
2017-10-19T18:02:26.255Z,71.93
2017-10-19T18:04:53.447Z,71.94
2017-10-19T18:07:21.138Z,71.94
2017-10-19T18:09:48.855Z,71.95
2017-10-19T18:12:16.714Z,71.95
2017-10-19T18:14:45.512Z,71.95
2017-10-19T18:17:12.778Z,71.95
2017-10-19T18:19:39.930Z,71.96
2017-10-19T18:22:07.094Z,71.95
2017-10-19T18:24:34.846Z,71.96
2017-10-19T18:27:02.805Z,71.97
2017-10-19T18:29:30.059Z,71.98
2017-10-19T18:31:58.038Z,71.98
2017-10-19T18:34:26.153Z,71.99
2017-10-19T18:36:53.678Z,72.00
2017-10-19T18:39:21.569Z,72.00
2017-10-19T18:41:48.723Z,72.02
2017-10-19T18:44:16.042Z,71.99
2017-10-19T18:46:44.105Z,71.98
2017-10-19T18:49:11.616Z,71.97
2017-10-19T18:51:39.127Z,71.96
2017-10-19T18:54:06.340Z,71.95
2017-10-19T18:56:33.506Z,71.94
2017-10-19T18:59:00.681Z,71.94
2017-10-19T19:08:50.963Z,71.94
2017-10-19T19:11:18.901Z,71.94
2017-10-19T19:13:47.422Z,71.95
2017-10-19T19:16:15.437Z,71.94
2017-10-19T19:21:10.414Z,71.91
2017-10-19T19:23:38.114Z,71.90
2017-10-19T19:26:06.111Z,71.88
2017-10-19T19:28:34.749Z,71.87
2017-10-19T19:31:03.341Z,71.87
2017-10-19T19:33:31.016Z,71.86
2017-10-19T19:35:59.700Z,71.86
2017-10-19T19:38:28.272Z,71.86
2017-10-19T19:40:56.922Z,71.87
2017-10-19T19:43:25.444Z,71.87
2017-10-19T19:45:53.682Z,71.88
2017-10-19T19:48:23.114Z,71.88
2017-10-19T19:50:52.026Z,71.89
2017-10-19T19:53:19.758Z,71.90
2017-10-19T19:55:47.876Z,71.91
2017-10-19T19:58:15.043Z,71.92
2017-10-19T20:00:42.888Z,71.93
2017-10-19T20:03:10.373Z,71.94
2017-10-19T20:05:38.303Z,71.94
2017-10-19T20:08:05.556Z,71.95
2017-10-19T20:10:33.181Z,71.94
2017-10-19T20:15:28.515Z,71.91
2017-10-19T20:17:55.744Z,71.91
2017-10-19T20:20:23.452Z,71.90
2017-10-19T20:22:50.607Z,71.88
2017-10-19T20:25:17.766Z,71.87
2017-10-19T20:27:44.961Z,71.87
2017-10-19T20:30:12.669Z,71.86
2017-10-19T20:32:39.849Z,71.84
2017-10-19T20:35:07.276Z,71.85
2017-10-19T20:37:34.716Z,71.85
2017-10-19T20:40:01.860Z,71.85
2017-10-19T20:42:29.855Z,71.86
2017-10-19T20:44:57.008Z,71.85
2017-10-19T20:47:24.178Z,71.87
2017-10-19T20:49:51.337Z,71.88
2017-10-19T20:52:18.478Z,71.89
2017-10-19T20:54:45.645Z,71.89
2017-10-19T20:57:12.815Z,71.90
2017-10-19T20:59:40.004Z,71.91
2017-10-19T21:02:07.198Z,71.92
2017-10-19T21:07:02.131Z,71.95
2017-10-19T21:09:29.335Z,71.95
2017-10-19T21:11:56.678Z,71.95
2017-10-19T21:14:23.898Z,71.95
2017-10-19T21:16:51.314Z,71.97
2017-10-19T21:19:18.467Z,71.96
2017-10-19T21:21:45.610Z,71.96
2017-10-19T21:24:13.228Z,71.98
2017-10-19T21:26:40.898Z,71.99
2017-10-19T21:29:08.488Z,72.00
2017-10-19T21:31:35.833Z,72.00
2017-10-19T21:34:04.182Z,72.01
2017-10-19T21:36:31.762Z,72.02
2017-10-19T21:38:59.361Z,72.02
2017-10-19T21:41:26.598Z,72.01
2017-10-19T21:43:53.776Z,72.02
2017-10-19T21:46:20.947Z,72.02
2017-10-19T21:48:48.230Z,72.02
2017-10-19T21:51:15.381Z,72.03
2017-10-19T21:53:42.527Z,72.03
2017-10-19T21:56:09.693Z,72.04
2017-10-19T21:58:36.834Z,72.05
2017-10-19T22:01:04.000Z,72.04
2017-10-19T22:03:31.147Z,72.06
2017-10-19T22:05:58.290Z,72.05
2017-10-19T22:08:25.430Z,72.06
2017-10-19T22:10:52.579Z,72.06
2017-10-19T22:13:20.038Z,72.06
2017-10-19T22:15:47.242Z,72.06
2017-10-19T22:18:14.426Z,72.06
2017-10-19T22:20:41.583Z,72.06
2017-10-19T22:23:08.749Z,72.06
2017-10-19T22:25:35.926Z,72.07
2017-10-19T22:28:03.074Z,72.07
2017-10-19T22:30:30.218Z,72.07
2017-10-19T22:32:57.380Z,72.07
2017-10-19T22:35:24.553Z,72.08
2017-10-19T22:37:51.701Z,72.08
2017-10-19T22:40:18.859Z,72.07
2017-10-19T22:42:46.026Z,72.08
2017-10-19T22:45:13.179Z,72.07
2017-10-19T22:47:40.345Z,72.07
2017-10-19T22:50:07.489Z,72.07
2017-10-19T22:52:34.672Z,72.08
2017-10-19T22:55:01.822Z,72.08
2017-10-19T22:57:28.982Z,72.08
2017-10-19T22:59:56.141Z,72.08
2017-10-19T23:02:23.300Z,72.09
2017-10-19T23:04:50.493Z,72.09
2017-10-19T23:07:17.656Z,72.09
2017-10-19T23:09:44.820Z,72.09
2017-10-19T23:12:11.979Z,72.09
2017-10-19T23:14:39.136Z,72.09
2017-10-19T23:17:06.286Z,72.09
2017-10-19T23:19:33.462Z,72.09
2017-10-19T23:22:00.610Z,72.09
2017-10-19T23:24:27.758Z,72.09
2017-10-19T23:26:54.917Z,72.09
2017-10-19T23:29:22.063Z,72.11
2017-10-19T23:31:49.224Z,72.10
2017-10-19T23:34:16.367Z,72.10
2017-10-19T23:36:43.519Z,72.11
2017-10-19T23:39:10.658Z,72.10
2017-10-19T23:41:37.803Z,72.11
2017-10-19T23:44:04.968Z,72.11
2017-10-19T23:46:32.337Z,72.10
2017-10-19T23:48:59.497Z,72.10
2017-10-19T23:51:26.936Z,72.10
2017-10-19T23:53:54.850Z,72.10
2017-10-19T23:56:22.125Z,72.11
2017-10-19T23:58:49.289Z,72.11
